Coeur D'Alene - Pappy Boyington Field
KCOE : now visible

Airfield :











YOU CAN JOIN US ON...

 
LOGIN :

Register | Disclaimer

   EN    FR    IT 

 









Legend :    VFR   Marginal VFR   IFR   Intensive IFR   Very Intensive IFR
Visi :
Ceiling :
>= 8 km
>= 3000ft
5 to 8 km
1000 to 3000 ft
1500m to 5 km
500 to 1000 ft
800 to 1500m
200 to 500 ft
< 800m
< 200 ft
Symbols :   Thunderstorms  Fog  Heavy snow  Heavy precipitations  Wind > 20 kt






- Airport Elevation : 2320 ft


KCOE - Coeur D'Alene - Pappy Boyington Field

CURRENT METAR :
  • 260556Z AUTO 05005KT 3/4SM -RA BR OVC021 02/01 A3005 RMK AO2 UPE45RAB45 SLP212 P0000 60000 T00170011 10033 20011 58005 FZRANO

EXPIRED METARs :
  • 260534Z AUTO 07003KT 1/2SM UP FG FEW008 SCT011 OVC023 02/01 A3006 RMK AO2 P0000 FZRANO
  • 260526Z AUTO 00000KT 3/4SM UP BR FEW007 BKN011 OVC027 02/01 A3006 RMK AO2 P0000 FZRANO
  • 260515Z AUTO 00000KT 3/4SM UP BR OVC011 02/01 A3006 RMK AO2 CIG 007V013 P0000 FZRANO
  • 260451Z AUTO 00000KT 3SM UP BR BKN007 OVC016 02/01 A3006 RMK AO2 UPB50 SLP217 P0000 T00170011 FZRANO
  • 260428Z AUTO 11003KT 2 1/2SM BR BKN005 BKN023 OVC037 01/01 A3006 RMK AO2 FZRANO
  • 260416Z AUTO 07003KT 2 1/2SM BR SCT005 BKN023 OVC037 02/01 A3006 RMK AO2 FZRANO
  • 260401Z AUTO 07004KT 3SM BR BKN005 BKN015 OVC023 02/01 A3006 RMK AO2 FZRANO
  • 260342Z AUTO 08003KT 1/2SM FG FEW005 BKN024 OVC040 01/01 A3006 RMK AO2 FZRANO
  • 260332Z AUTO 05003KT 1 3/4SM BR SCT015 OVC040 01/01 A3006 RMK AO2 FZRANO

TAF KCOE
Valid from the 26 at 06:00 until the 27 at 06:00 UTC


260534Z 2606/2706 VRB03KT 1SM -DZ BR BKN007 OVC012
FM260800 05005KT 2SM BR OVC007
FM261400 04008KT P6SM -RA SCT008 OVC015
FM261700 17004KT 4SM -RA OVC008
FM262100 22005KT P6SM OVC015
FM270200 VRB03KT 4SM BR OVC010



MET'MAP, your aeronautical weather chart ! - Copyright ORBIFLY December 2007 - Disclaimer

ORBIFLY MET'MAP TEAM :

Programming & Development : Alexandra Zaïnal
Concept & original design : Baudouin d'Aumeries
Assistance for programming : Marc-Olivier Méhu
Technical & hardware support : Manuel Goepfert

Contact : metmap@orbifly.com




SOURCES & CREDITS :

   NOAA       Earth
Advisory